createdAt,value
2023-02-22T00:01:44.307Z,93.25
2023-02-22T00:04:10.961Z,96.80
2023-02-22T00:06:37.579Z,101.35
2023-02-22T00:09:04.638Z,102.18
2023-02-22T00:11:31.571Z,90.78
2023-02-22T00:13:58.339Z,95.72
2023-02-22T00:16:27.892Z,85.13
2023-02-22T00:18:54.753Z,94.07
2023-02-22T00:21:21.672Z,87.88
2023-02-22T00:23:48.739Z,107.82
2023-02-22T00:26:17.672Z,80.43
2023-02-22T00:28:50.519Z,103.00
2023-02-22T00:31:17.660Z,104.93
2023-02-22T00:33:44.781Z,100.18
2023-02-22T00:36:12.505Z,104.10
2023-02-22T00:38:39.851Z,112.93
2023-02-22T00:41:06.573Z,111.32
2023-02-22T00:43:33.637Z,107.28
2023-02-22T00:46:00.409Z,132.15
2023-02-22T00:48:27.058Z,125.82
2023-02-22T00:50:53.781Z,141.98
2023-02-22T00:53:20.978Z,128.00
2023-02-22T00:55:47.849Z,122.63
2023-02-22T00:58:14.641Z,136.23
2023-02-22T01:00:42.090Z,130.45
2023-02-22T01:03:10.476Z,135.30
2023-02-22T01:05:37.485Z,135.25
2023-02-22T01:08:04.787Z,142.57
2023-02-22T01:10:32.689Z,151.23
2023-02-22T01:12:59.999Z,216.90
2023-02-22T01:15:27.762Z,155.05
2023-02-22T01:17:54.527Z,173.63
2023-02-22T01:20:24.094Z,283.25
2023-02-22T01:22:51.599Z,187.95
2023-02-22T01:25:26.023Z,163.25
2023-02-22T01:27:52.865Z,171.73
2023-02-22T01:30:28.220Z,169.80
2023-02-22T01:32:55.028Z,201.95
2023-02-22T01:35:24.887Z,175.70
2023-02-22T01:37:51.611Z,182.32
2023-02-22T01:40:21.500Z,187.45
2023-02-22T01:45:30.844Z,163.98
2023-02-22T01:48:02.483Z,176.98
2023-02-22T01:50:29.916Z,187.98
2023-02-22T01:52:56.560Z,172.30
2023-02-22T01:55:23.360Z,207.00
2023-02-22T01:57:50.040Z,174.77
2023-02-22T02:03:05.261Z,263.40
2023-02-22T02:05:31.999Z,225.52
2023-02-22T02:07:59.507Z,142.38
2023-02-22T02:10:26.794Z,164.63
2023-02-22T02:12:53.690Z,196.07
2023-02-22T02:15:30.126Z,187.70
2023-02-22T02:18:07.581Z,209.90
2023-02-22T02:20:37.423Z,227.15
2023-02-22T02:23:16.167Z,200.95
2023-02-22T02:26:31.400Z,197.73
2023-02-22T02:29:42.570Z,138.65
2023-02-22T02:32:34.146Z,207.80
2023-02-22T02:35:08.390Z,167.50
2023-02-22T02:38:05.344Z,178.95
2023-02-22T02:40:53.322Z,165.00
2023-02-22T02:43:43.027Z,180.38
2023-02-22T02:46:22.872Z,163.73
2023-02-22T02:48:59.287Z,129.23
2023-02-22T02:51:29.232Z,150.98
2023-02-22T02:56:22.787Z,158.50
2023-02-22T02:58:51.014Z,174.48
2023-02-22T03:01:58.825Z,228.38
2023-02-22T03:04:48.981Z,241.18
2023-02-22T03:07:43.513Z,231.93
2023-02-22T03:10:29.910Z,208.52
2023-02-22T03:13:15.545Z,198.38
2023-02-22T03:15:54.099Z,174.20
2023-02-22T03:18:46.303Z,187.40
2023-02-22T03:21:27.931Z,180.65
2023-02-22T03:24:06.483Z,154.48
2023-02-22T03:26:43.417Z,166.30
2023-02-22T03:29:10.574Z,211.50
2023-02-22T03:31:41.844Z,147.52
2023-02-22T03:34:17.183Z,135.88
2023-02-22T03:36:47.328Z,157.60
2023-02-22T03:39:15.322Z,174.75
2023-02-22T03:41:42.077Z,113.03
2023-02-22T03:44:10.277Z,169.73
2023-02-22T03:46:38.354Z,141.18
2023-02-22T03:49:31.328Z,149.32
2023-02-22T03:51:57.995Z,137.95
2023-02-22T03:54:24.589Z,157.80
2023-02-22T03:56:53.949Z,152.27
2023-02-22T03:59:20.687Z,137.05
2023-02-22T04:01:47.269Z,109.28
2023-02-22T04:04:13.945Z,114.85
2023-02-22T04:06:40.703Z,131.93
2023-02-22T04:09:07.381Z,121.38
2023-02-22T04:11:34.156Z,101.25
2023-02-22T04:14:00.789Z,91.80
2023-02-22T04:16:27.499Z,84.22
2023-02-22T04:18:54.185Z,84.05
2023-02-22T04:21:20.828Z,69.68
2023-02-22T04:23:47.512Z,77.07
2023-02-22T04:26:14.195Z,76.90
2023-02-22T04:28:40.824Z,72.85
2023-02-22T04:31:07.441Z,81.68
2023-02-22T04:33:34.142Z,83.28
2023-02-22T04:36:00.775Z,85.88
2023-02-22T04:38:27.543Z,86.20
2023-02-22T04:40:54.545Z,79.55
2023-02-22T04:43:21.507Z,78.80
2023-02-22T04:45:48.180Z,88.47
2023-02-22T04:48:14.878Z,76.80
2023-02-22T04:50:41.510Z,77.38
2023-02-22T04:53:08.326Z,84.35
2023-02-22T04:55:35.082Z,83.63
2023-02-22T04:58:01.825Z,67.50
2023-02-22T05:00:28.599Z,86.05
2023-02-22T05:02:55.424Z,92.07
2023-02-22T05:05:22.256Z,75.95
2023-02-22T05:07:49.376Z,98.50
2023-02-22T05:10:16.249Z,73.60
2023-02-22T05:12:42.967Z,74.85
2023-02-22T05:15:10.038Z,67.25
2023-02-22T05:17:36.771Z,62.17
2023-02-22T05:20:04.203Z,65.35
2023-02-22T05:22:30.916Z,75.88
2023-02-22T05:24:57.604Z,73.35
2023-02-22T05:27:24.284Z,63.08
2023-02-22T05:29:50.979Z,73.85
2023-02-22T05:32:17.639Z,61.42
2023-02-22T05:34:44.301Z,69.32
2023-02-22T05:37:11.036Z,61.30
2023-02-22T05:39:37.643Z,52.97
2023-02-22T05:42:04.411Z,59.90
2023-02-22T05:44:31.065Z,58.28
2023-02-22T05:46:57.664Z,58.42
2023-02-22T05:49:24.289Z,53.53
2023-02-22T05:51:51.055Z,55.55
2023-02-22T05:54:17.727Z,65.93
2023-02-22T05:56:44.381Z,65.82
2023-02-22T05:59:11.087Z,69.40
2023-02-22T06:01:37.759Z,65.55
2023-02-22T06:04:04.588Z,63.85
2023-02-22T06:06:31.335Z,61.40
2023-02-22T06:08:57.966Z,58.05
2023-02-22T06:11:24.604Z,55.97
2023-02-22T06:13:52.044Z,54.38
2023-02-22T06:16:20.763Z,52.35
2023-02-22T06:18:48.899Z,49.55
2023-02-22T06:21:15.867Z,53.05
2023-02-22T06:23:42.706Z,50.50
2023-02-22T06:26:09.473Z,50.40
2023-02-22T06:28:36.169Z,56.28
2023-02-22T06:31:02.931Z,49.80
2023-02-22T06:33:29.677Z,48.25
2023-02-22T06:35:56.418Z,51.20
2023-02-22T06:38:23.978Z,45.17
2023-02-22T06:40:50.666Z,53.88
2023-02-22T06:43:17.547Z,44.25
2023-02-22T06:45:44.271Z,49.50
2023-02-22T06:48:10.971Z,49.75
2023-02-22T06:50:37.755Z,44.22
2023-02-22T06:53:04.495Z,38.70
2023-02-22T06:55:32.670Z,43.38
2023-02-22T06:57:59.851Z,46.58
2023-02-22T07:00:26.916Z,46.00
2023-02-22T07:02:53.860Z,43.88
2023-02-22T07:05:21.540Z,46.90
2023-02-22T07:07:48.944Z,49.78
2023-02-22T07:10:35.577Z,46.75
2023-02-22T07:13:02.409Z,40.95
2023-02-22T07:15:29.863Z,49.65
2023-02-22T07:17:56.726Z,46.95
2023-02-22T07:20:24.237Z,39.47
2023-02-22T07:22:50.885Z,46.95
2023-02-22T07:25:17.725Z,43.25
2023-02-22T07:27:44.506Z,43.38
2023-02-22T07:30:32.180Z,43.28
2023-02-22T07:33:00.102Z,42.42
2023-02-22T07:35:28.635Z,46.83
2023-02-22T07:37:56.066Z,43.78
2023-02-22T07:40:23.590Z,46.45
2023-02-22T07:43:16.883Z,49.95
2023-02-22T07:45:43.959Z,41.05
2023-02-22T07:48:10.811Z,44.03
2023-02-22T07:50:37.483Z,42.40
2023-02-22T07:53:05.971Z,47.53
2023-02-22T07:55:32.912Z,43.28
2023-02-22T07:58:01.211Z,43.10
2023-02-22T08:00:29.020Z,43.25
2023-02-22T08:02:55.888Z,39.83
2023-02-22T08:05:23.758Z,46.35
2023-02-22T08:07:50.390Z,40.75
2023-02-22T08:10:17.736Z,39.03
2023-02-22T08:12:44.487Z,43.10
2023-02-22T08:15:16.953Z,47.42
2023-02-22T08:17:43.718Z,40.30
2023-02-22T08:20:10.642Z,38.53
2023-02-22T08:22:37.356Z,38.88
2023-02-22T08:25:04.299Z,45.22
2023-02-22T08:27:31.320Z,40.53
2023-02-22T08:29:58.123Z,44.00
2023-02-22T08:32:25.094Z,39.53
2023-02-22T08:34:51.902Z,39.38
2023-02-22T08:37:18.856Z,38.33
2023-02-22T08:39:45.735Z,42.17
2023-02-22T08:42:12.473Z,40.30
2023-02-22T08:44:39.410Z,37.58
2023-02-22T08:47:06.604Z,36.92
2023-02-22T08:49:33.381Z,36.33
2023-02-22T08:52:00.135Z,37.50
2023-02-22T08:54:26.855Z,39.63
2023-02-22T08:56:53.589Z,40.63
2023-02-22T08:59:20.408Z,39.50
2023-02-22T09:01:47.120Z,35.42
2023-02-22T09:04:13.873Z,37.25
2023-02-22T09:06:41.466Z,37.55
2023-02-22T09:09:08.463Z,35.05
2023-02-22T09:11:35.101Z,41.70
2023-02-22T09:14:01.810Z,43.70
2023-02-22T09:16:28.549Z,41.17
2023-02-22T09:18:55.243Z,40.85
2023-02-22T09:21:22.030Z,43.80
2023-02-22T09:23:48.751Z,37.67
2023-02-22T09:26:15.508Z,40.90
2023-02-22T09:28:42.227Z,40.92
2023-02-22T09:31:09.013Z,42.20
2023-02-22T09:33:35.680Z,39.67
2023-02-22T09:36:02.486Z,36.63
2023-02-22T09:38:29.156Z,38.72
2023-02-22T09:41:27.446Z,36.03
2023-02-22T09:44:02.085Z,33.95
2023-02-22T09:46:37.531Z,32.35
2023-02-22T09:49:30.504Z,36.08
2023-02-22T09:52:01.671Z,34.13
2023-02-22T09:54:49.894Z,37.53
2023-02-22T09:57:28.849Z,30.95
2023-02-22T10:00:15.775Z,28.13
2023-02-22T10:02:56.241Z,25.98
2023-02-22T10:05:26.238Z,31.63
2023-02-22T10:08:03.482Z,30.05
2023-02-22T10:10:35.388Z,28.77
2023-02-22T10:13:30.919Z,26.25
2023-02-22T10:16:25.357Z,31.20
2023-02-22T10:18:55.187Z,31.13
2023-02-22T10:23:58.508Z,31.23
2023-02-22T10:26:41.060Z,26.27
2023-02-22T10:29:17.082Z,29.63
2023-02-22T10:31:46.304Z,26.75
2023-02-22T10:34:16.292Z,27.70
2023-02-22T10:36:48.185Z,27.13
2023-02-22T10:39:30.199Z,29.10
2023-02-22T10:41:58.476Z,26.52
2023-02-22T10:44:25.227Z,28.65
2023-02-22T10:46:51.919Z,27.33
2023-02-22T10:49:22.384Z,24.92
2023-02-22T10:51:57.983Z,29.17
2023-02-22T10:54:51.094Z,25.15
2023-02-22T10:57:26.181Z,25.63
2023-02-22T10:59:52.845Z,23.20
2023-02-22T11:02:24.185Z,25.25
2023-02-22T11:04:55.865Z,25.98
2023-02-22T11:07:31.333Z,26.75
2023-02-22T11:11:44.537Z,23.83
2023-02-22T11:13:29.796Z,24.27
2023-02-22T11:16:02.405Z,24.13
2023-02-22T11:18:34.307Z,21.08
2023-02-22T11:21:08.803Z,24.15
2023-02-22T11:23:36.057Z,25.25
2023-02-22T11:26:10.861Z,22.63
2023-02-22T11:28:43.568Z,25.00
2023-02-22T11:31:11.952Z,23.63
2023-02-22T11:33:38.944Z,23.65
2023-02-22T11:36:13.258Z,24.85
2023-02-22T11:38:40.137Z,22.20
2023-02-22T11:41:14.777Z,23.63
2023-02-22T11:43:42.839Z,27.98
2023-02-22T11:46:22.810Z,23.33
2023-02-22T11:49:01.357Z,23.88
2023-02-22T11:51:43.946Z,23.10
2023-02-22T11:54:13.634Z,26.70
2023-02-22T11:59:19.881Z,25.80
2023-02-22T12:01:54.137Z,22.30
2023-02-22T12:04:50.001Z,27.48
2023-02-22T12:07:22.553Z,23.58
2023-02-22T12:09:54.923Z,27.90
2023-02-22T12:12:25.098Z,33.08
2023-02-22T12:15:03.617Z,32.80
2023-02-22T12:17:59.299Z,27.63
2023-02-22T12:20:48.279Z,31.15
2023-02-22T12:23:16.771Z,34.50
2023-02-22T12:26:03.311Z,37.00
2023-02-22T12:28:45.646Z,35.60
2023-02-22T12:31:29.197Z,30.50
2023-02-22T12:34:22.022Z,33.00
2023-02-22T12:36:50.484Z,32.75
2023-02-22T12:39:53.302Z,36.38
2023-02-22T12:42:26.604Z,36.70
2023-02-22T12:45:07.000Z,31.08
2023-02-22T12:47:40.557Z,35.50
2023-02-22T12:50:16.086Z,36.38
2023-02-22T12:52:56.182Z,32.33
2023-02-22T12:55:28.729Z,32.30
2023-02-22T12:58:08.843Z,35.10
2023-02-22T13:00:56.591Z,34.22
2023-02-22T13:03:39.338Z,36.20
2023-02-22T13:06:30.834Z,35.38
2023-02-22T13:09:03.755Z,33.22
2023-02-22T13:11:33.900Z,33.88
2023-02-22T13:14:06.074Z,32.03
2023-02-22T13:16:51.163Z,36.65
2023-02-22T13:19:40.906Z,33.97
2023-02-22T13:22:32.492Z,36.13
2023-02-22T13:25:08.076Z,35.85
2023-02-22T13:27:45.445Z,39.67
2023-02-22T13:30:34.319Z,36.58
2023-02-22T13:33:22.676Z,32.97
2023-02-22T13:38:39.954Z,36.97
2023-02-22T13:41:34.814Z,39.47
2023-02-22T13:44:35.350Z,38.20
2023-02-22T13:47:23.771Z,38.17
2023-02-22T13:49:53.289Z,41.08
2023-02-22T13:52:24.671Z,38.15
2023-02-22T13:54:57.759Z,43.03
2023-02-22T13:57:26.920Z,45.45
2023-02-22T14:00:21.201Z,42.92
2023-02-22T14:03:04.373Z,40.28
2023-02-22T14:05:47.695Z,44.47
2023-02-22T14:08:14.352Z,44.08
2023-02-22T14:10:43.954Z,45.47
2023-02-22T14:13:11.004Z,49.08
2023-02-22T14:15:59.799Z,47.47
2023-02-22T14:18:43.077Z,48.28
2023-02-22T14:21:10.241Z,49.20
2023-02-22T14:23:41.178Z,54.42
2023-02-22T14:26:18.573Z,49.20
2023-02-22T14:29:07.366Z,50.72
2023-02-22T14:32:03.946Z,54.03
2023-02-22T14:34:51.885Z,57.53
2023-02-22T14:37:24.093Z,53.95
2023-02-22T14:40:07.750Z,58.72
2023-02-22T14:42:34.991Z,64.00
2023-02-22T14:45:23.059Z,57.13
2023-02-22T14:48:00.188Z,62.63
2023-02-22T14:50:42.221Z,61.20
2023-02-22T14:53:37.005Z,65.65
2023-02-22T14:56:08.564Z,68.43
2023-02-22T14:58:41.212Z,64.10
2023-02-22T15:01:48.987Z,70.63
2023-02-22T15:04:29.912Z,71.70
2023-02-22T15:06:57.850Z,79.97
2023-02-22T15:09:29.203Z,74.15
2023-02-22T15:12:05.669Z,75.15
2023-02-22T15:17:01.061Z,73.45
2023-02-22T15:19:29.169Z,86.50
2023-02-22T15:21:57.114Z,73.18
2023-02-22T15:24:36.912Z,79.53
2023-02-22T15:27:17.234Z,82.03
2023-02-22T15:29:44.248Z,90.35
2023-02-22T15:32:29.827Z,84.60
2023-02-22T15:35:11.884Z,94.13
2023-02-22T15:37:38.557Z,91.00
2023-02-22T15:40:11.875Z,96.18
2023-02-22T15:42:49.214Z,92.70
2023-02-22T15:45:17.991Z,92.80
2023-02-22T15:47:44.681Z,96.93
2023-02-22T15:50:14.084Z,92.68
2023-02-22T15:52:46.835Z,106.32
2023-02-22T15:55:17.977Z,106.90
2023-02-22T15:57:44.751Z,98.22
2023-02-22T16:00:38.729Z,108.07
2023-02-22T16:03:07.723Z,93.30
2023-02-22T16:05:44.889Z,105.72
2023-02-22T16:08:18.197Z,100.68
2023-02-22T16:11:11.437Z,100.18
2023-02-22T16:13:39.465Z,99.53
2023-02-22T16:16:31.556Z,110.47
2023-02-22T16:19:27.522Z,105.15
2023-02-22T16:22:02.072Z,99.10
2023-02-22T16:24:33.197Z,108.43
2023-02-22T16:27:17.440Z,105.00
2023-02-22T16:29:44.747Z,105.70
2023-02-22T16:32:11.671Z,108.22
2023-02-22T16:34:38.421Z,103.47
2023-02-22T16:37:05.247Z,109.50
2023-02-22T16:39:32.388Z,107.05
2023-02-22T16:42:00.675Z,121.55
2023-02-22T16:44:29.899Z,111.82
2023-02-22T16:46:58.101Z,103.35
2023-02-22T16:49:25.116Z,101.65
2023-02-22T16:52:01.649Z,110.38
2023-02-22T16:54:30.254Z,116.03
2023-02-22T16:56:57.563Z,113.97
2023-02-22T16:59:24.188Z,106.32
2023-02-22T17:01:50.843Z,109.88
2023-02-22T17:04:23.309Z,109.63
2023-02-22T17:06:50.217Z,103.45
2023-02-22T17:09:16.972Z,104.80
2023-02-22T17:11:43.959Z,108.22
2023-02-22T17:14:10.683Z,115.25
2023-02-22T17:16:37.561Z,118.47
2023-02-22T17:19:05.918Z,150.13
2023-02-22T17:21:32.637Z,138.25
2023-02-22T17:23:59.411Z,140.02
2023-02-22T17:26:26.127Z,146.13
2023-02-22T17:28:52.892Z,134.80
2023-02-22T17:31:24.157Z,137.82
2023-02-22T17:33:50.951Z,147.10
2023-02-22T17:36:17.974Z,129.73
2023-02-22T17:38:46.099Z,134.65
2023-02-22T17:41:12.768Z,137.57
2023-02-22T17:43:39.566Z,131.30
2023-02-22T17:46:07.495Z,141.00
2023-02-22T17:48:34.494Z,132.52
2023-02-22T17:51:05.487Z,131.27
2023-02-22T17:53:32.275Z,121.40
2023-02-22T17:55:59.009Z,124.80
2023-02-22T17:58:25.869Z,121.05
2023-02-22T18:00:52.634Z,123.15
2023-02-22T18:03:20.356Z,122.20
2023-02-22T18:05:48.647Z,107.32
2023-02-22T18:08:15.543Z,109.88
2023-02-22T18:10:42.525Z,107.38
2023-02-22T18:13:09.751Z,101.70
2023-02-22T18:15:36.443Z,101.13
2023-02-22T18:18:03.604Z,102.63
2023-02-22T18:20:30.247Z,98.35
2023-02-22T18:22:59.929Z,99.00
2023-02-22T18:25:26.903Z,101.10
2023-02-22T18:27:54.281Z,102.88
2023-02-22T18:30:21.070Z,96.53
2023-02-22T18:32:47.732Z,90.70
2023-02-22T18:35:14.384Z,103.05
2023-02-22T18:37:41.108Z,101.60
2023-02-22T18:40:08.138Z,113.03
2023-02-22T18:42:34.747Z,103.75
2023-02-22T18:45:01.377Z,111.25
2023-02-22T18:47:27.973Z,114.53
2023-02-22T18:49:54.640Z,116.70
2023-02-22T18:52:21.424Z,121.30
2023-02-22T18:54:48.612Z,121.88
2023-02-22T18:57:15.371Z,126.50
2023-02-22T18:59:42.556Z,119.43
2023-02-22T19:02:20.264Z,116.65
2023-02-22T19:04:47.836Z,119.07
2023-02-22T19:07:14.434Z,130.93
2023-02-22T19:09:41.156Z,127.97
2023-02-22T19:12:07.834Z,125.82
2023-02-22T19:14:34.453Z,130.90
2023-02-22T19:17:01.104Z,128.63
2023-02-22T19:19:28.053Z,129.13
2023-02-22T19:21:54.728Z,140.38
2023-02-22T19:24:21.479Z,134.43
2023-02-22T19:26:48.208Z,111.72
2023-02-22T19:29:14.792Z,120.15
2023-02-22T19:31:42.022Z,113.63
2023-02-22T19:34:10.473Z,116.68
2023-02-22T19:36:38.424Z,114.20
2023-02-22T19:39:08.002Z,115.13
2023-02-22T19:41:34.841Z,107.55
2023-02-22T19:44:01.586Z,114.38
2023-02-22T19:46:28.217Z,100.28
2023-02-22T19:48:55.009Z,117.10
2023-02-22T19:51:23.161Z,118.15
2023-02-22T19:53:51.008Z,118.97
2023-02-22T19:56:19.879Z,114.53
2023-02-22T19:58:57.599Z,100.70
2023-02-22T20:01:31.652Z,119.22
2023-02-22T20:04:03.316Z,114.95
2023-02-22T20:06:32.654Z,114.35
2023-02-22T20:08:59.385Z,117.78
2023-02-22T20:11:26.122Z,117.30
2023-02-22T20:13:53.310Z,109.43
2023-02-22T20:16:20.344Z,110.72
2023-02-22T20:18:47.743Z,113.57
2023-02-22T20:21:31.216Z,120.18
2023-02-22T20:24:05.063Z,116.53
2023-02-22T20:26:32.727Z,117.05
2023-02-22T20:28:59.439Z,124.55
2023-02-22T20:31:26.565Z,124.43
2023-02-22T20:33:54.137Z,124.40
2023-02-22T20:36:21.160Z,122.85
2023-02-22T20:38:48.020Z,133.45
2023-02-22T20:41:25.278Z,123.85
2023-02-22T20:43:52.730Z,123.65
2023-02-22T20:46:22.786Z,123.35
2023-02-22T20:48:49.775Z,126.05
2023-02-22T20:51:16.960Z,132.25
2023-02-22T20:53:45.262Z,140.30
2023-02-22T20:56:13.785Z,148.25
2023-02-22T20:58:40.807Z,144.10
2023-02-22T21:01:08.721Z,135.93
2023-02-22T21:03:35.850Z,138.85
2023-02-22T21:06:04.212Z,141.32
2023-02-22T21:08:31.047Z,134.73
2023-02-22T21:10:59.747Z,137.18
2023-02-22T21:13:26.709Z,143.07
2023-02-22T21:15:53.492Z,132.82
2023-02-22T21:18:20.473Z,137.88
2023-02-22T21:20:47.637Z,153.60
2023-02-22T21:23:16.434Z,150.00
2023-02-22T21:25:52.673Z,155.68
2023-02-22T21:28:19.316Z,172.70
2023-02-22T21:30:46.475Z,164.93
2023-02-22T21:33:13.961Z,163.68
2023-02-22T21:35:40.710Z,143.77
2023-02-22T21:38:07.347Z,157.50
2023-02-22T21:40:34.696Z,147.82
2023-02-22T21:43:01.331Z,143.43
2023-02-22T21:45:27.978Z,160.57
2023-02-22T21:47:54.670Z,143.88
2023-02-22T21:50:21.432Z,151.07
2023-02-22T21:52:48.561Z,158.40
2023-02-22T21:55:15.657Z,142.05
2023-02-22T21:57:42.359Z,142.68
2023-02-22T22:00:10.528Z,137.45
2023-02-22T22:02:37.175Z,146.70
2023-02-22T22:05:04.105Z,148.90
2023-02-22T22:07:30.848Z,152.68
2023-02-22T22:09:57.579Z,172.38
2023-02-22T22:12:30.950Z,158.25
2023-02-22T22:15:04.589Z,181.30
2023-02-22T22:17:31.891Z,163.75
2023-02-22T22:19:58.478Z,160.00
2023-02-22T22:22:25.089Z,154.68
2023-02-22T22:24:51.748Z,159.82
2023-02-22T22:27:18.436Z,155.32
2023-02-22T22:29:45.110Z,182.32
2023-02-22T22:32:12.066Z,177.65
2023-02-22T22:34:38.930Z,164.50
2023-02-22T22:37:05.576Z,171.23
2023-02-22T22:39:32.284Z,172.30
2023-02-22T22:41:58.928Z,169.77
2023-02-22T22:44:25.671Z,181.52
2023-02-22T22:46:52.373Z,180.63
2023-02-22T22:49:19.287Z,180.32
2023-02-22T22:51:45.917Z,179.45
2023-02-22T22:54:12.796Z,174.27
2023-02-22T22:56:39.446Z,182.68
2023-02-22T22:59:07.442Z,164.50
2023-02-22T23:01:36.418Z,157.15
2023-02-22T23:04:04.055Z,164.88
2023-02-22T23:06:35.557Z,173.02
2023-02-22T23:09:08.054Z,168.10
2023-02-22T23:11:34.866Z,171.25
2023-02-22T23:14:02.991Z,187.68
2023-02-22T23:16:29.594Z,167.32
2023-02-22T23:18:56.292Z,158.02
2023-02-22T23:21:22.988Z,156.15
2023-02-22T23:23:56.033Z,158.55
2023-02-22T23:26:22.725Z,159.32
2023-02-22T23:28:49.326Z,167.32
2023-02-22T23:31:17.024Z,162.20
2023-02-22T23:33:44.641Z,159.35
2023-02-22T23:36:11.485Z,186.10
2023-02-22T23:38:41.518Z,164.00
2023-02-22T23:41:10.106Z,167.52
2023-02-22T23:43:37.932Z,163.45
2023-02-22T23:46:05.172Z,151.43
2023-02-22T23:48:31.843Z,156.27
2023-02-22T23:50:58.548Z,162.43
2023-02-22T23:53:25.785Z,164.40
2023-02-22T23:55:52.464Z,168.02
2023-02-22T23:58:19.090Z,165.10
